createdAt,value
2017-09-21T00:00:21.147Z,74.30
2017-09-21T00:02:48.639Z,74.20
2017-09-21T00:05:16.131Z,74.30
2017-09-21T00:07:44.778Z,74.20
2017-09-21T00:10:12.454Z,74.30
2017-09-21T00:12:39.962Z,74.20
2017-09-21T00:15:07.462Z,74.10
2017-09-21T00:17:35.016Z,74.10
2017-09-21T00:20:02.515Z,74.30
2017-09-21T00:22:31.032Z,74.20
2017-09-21T00:24:59.506Z,74.80
2017-09-21T00:27:27.783Z,74.60
2017-09-21T00:29:56.043Z,74.60
2017-09-21T00:32:24.322Z,74.70
2017-09-21T00:34:52.719Z,74.70
2017-09-21T00:39:49.476Z,73.90
2017-09-21T00:42:16.987Z,74.10
2017-09-21T00:44:45.374Z,74.10
2017-09-21T00:47:13.060Z,74.10
2017-09-21T00:49:40.555Z,74.20
2017-09-21T00:52:08.052Z,74.20
2017-09-21T00:54:36.317Z,74.80
2017-09-21T00:57:04.581Z,74.70
2017-09-21T00:59:33.209Z,73.90
2017-09-21T01:02:00.700Z,74.00
2017-09-21T01:04:28.307Z,73.90
2017-09-21T01:06:55.808Z,73.90
2017-09-21T01:09:23.305Z,73.90
2017-09-21T01:11:51.571Z,74.10
2017-09-21T01:14:20.573Z,73.90
2017-09-21T01:16:48.239Z,73.90
2017-09-21T01:19:15.735Z,73.90
2017-09-21T01:21:43.226Z,73.80
2017-09-21T01:24:11.623Z,74.30
2017-09-21T01:26:39.240Z,74.00
2017-09-21T01:29:08.239Z,74.20
2017-09-21T01:31:35.744Z,73.70
2017-09-21T01:34:03.241Z,73.90
2017-09-21T01:36:30.734Z,73.90
2017-09-21T01:38:58.224Z,73.90
2017-09-21T01:41:26.120Z,73.80
2017-09-21T01:43:53.611Z,73.80
2017-09-21T01:46:21.111Z,73.90
2017-09-21T01:48:48.603Z,73.80
2017-09-21T01:51:16.099Z,73.90
2017-09-21T01:53:43.594Z,73.90
2017-09-21T01:56:11.095Z,73.80
2017-09-21T01:58:39.359Z,73.70
2017-09-21T02:01:07.251Z,73.70
2017-09-21T02:03:35.511Z,73.60
2017-09-21T02:06:04.280Z,73.40
2017-09-21T02:08:31.771Z,73.40
2017-09-21T02:10:59.271Z,73.70
2017-09-21T02:13:28.267Z,73.40
2017-09-21T02:15:55.934Z,73.50
2017-09-21T02:18:23.595Z,73.30
2017-09-21T02:20:51.253Z,73.40
2017-09-21T02:23:18.911Z,73.40
2017-09-21T02:30:44.124Z,72.80
2017-09-21T02:33:11.656Z,72.90
2017-09-21T02:35:39.151Z,72.90
2017-09-21T02:38:06.668Z,73.00
2017-09-21T02:40:34.362Z,73.00
2017-09-21T02:43:02.027Z,72.90
2017-09-21T02:45:30.513Z,72.90
2017-09-21T02:47:58.032Z,72.90
2017-09-21T02:50:26.431Z,72.80
2017-09-21T02:52:53.943Z,72.80
2017-09-21T02:55:21.435Z,72.70
2017-09-21T02:57:48.995Z,72.60
2017-09-21T03:00:16.483Z,72.60
2017-09-21T03:02:44.930Z,72.50
2017-09-21T03:05:12.603Z,72.60
2017-09-21T03:07:40.102Z,72.50
2017-09-21T03:10:07.704Z,72.50
2017-09-21T03:12:35.593Z,72.40
2017-09-21T03:15:03.095Z,72.30
2017-09-21T03:17:32.096Z,72.20
2017-09-21T03:19:59.587Z,71.90
2017-09-21T03:22:28.245Z,71.80
2017-09-21T03:24:55.741Z,71.90
2017-09-21T03:27:23.638Z,71.80
2017-09-21T03:29:51.627Z,71.70
2017-09-21T03:32:19.290Z,71.50
2017-09-21T03:34:46.952Z,71.40
2017-09-21T03:37:14.451Z,71.30
2017-09-21T03:39:42.708Z,71.50
2017-09-21T03:42:11.067Z,71.50
2017-09-21T03:44:38.608Z,71.40
2017-09-21T03:47:06.866Z,71.30
2017-09-21T03:49:34.356Z,71.20
2017-09-21T03:52:01.847Z,71.10
2017-09-21T03:54:30.322Z,71.10
2017-09-21T03:56:57.919Z,71.10
2017-09-21T03:59:25.585Z,71.10
2017-09-21T04:01:53.075Z,71.00
2017-09-21T04:04:20.566Z,70.70
2017-09-21T04:06:48.822Z,71.30
2017-09-21T04:09:16.423Z,70.60
2017-09-21T04:11:43.920Z,70.60
2017-09-21T04:14:11.413Z,70.40
2017-09-21T04:16:39.301Z,70.40
2017-09-21T04:19:06.802Z,70.20
2017-09-21T04:21:35.811Z,70.00
2017-09-21T04:24:04.080Z,70.60
2017-09-21T04:26:31.976Z,70.10
2017-09-21T04:28:59.487Z,70.10
2017-09-21T04:31:27.375Z,70.90
2017-09-21T04:33:55.059Z,69.80
2017-09-21T04:36:22.550Z,70.90
2017-09-21T04:38:50.065Z,70.90
2017-09-21T04:41:17.615Z,70.90
2017-09-21T04:43:45.903Z,70.80
2017-09-21T04:46:13.395Z,70.80
2017-09-21T04:48:41.303Z,70.70
2017-09-21T04:51:08.795Z,70.70
2017-09-21T04:53:36.335Z,70.60
2017-09-21T04:56:03.823Z,70.60
2017-09-21T04:58:31.435Z,70.70
2017-09-21T05:00:58.936Z,70.60
2017-09-21T05:03:26.426Z,70.60
2017-09-21T05:05:54.959Z,70.60
2017-09-21T05:08:22.451Z,70.50
2017-09-21T05:10:50.708Z,70.60
2017-09-21T05:13:18.194Z,70.60
2017-09-21T05:15:45.688Z,70.70
2017-09-21T05:18:13.319Z,70.60
2017-09-21T05:20:40.811Z,70.70
2017-09-21T05:23:09.075Z,70.70
2017-09-21T05:25:37.331Z,70.60
2017-09-21T05:28:05.991Z,70.60
2017-09-21T05:30:33.483Z,70.70
2017-09-21T05:33:01.741Z,70.70
2017-09-21T05:35:29.231Z,70.60
2017-09-21T05:37:57.247Z,70.70
2017-09-21T05:40:24.738Z,70.80
2017-09-21T05:42:52.627Z,70.80
2017-09-21T05:45:20.226Z,70.80
2017-09-21T05:47:47.724Z,71.10
2017-09-21T05:50:15.336Z,71.20
2017-09-21T05:52:42.823Z,71.20
2017-09-21T05:55:10.439Z,71.30
2017-09-21T05:57:38.327Z,71.40
2017-09-21T06:00:05.825Z,71.50
2017-09-21T06:02:33.310Z,71.70
2017-09-21T06:05:01.976Z,71.70
2017-09-21T06:07:30.256Z,72.50
2017-09-21T06:09:58.135Z,71.90
2017-09-21T06:12:25.618Z,72.00
2017-09-21T06:14:53.108Z,72.10
2017-09-21T06:19:49.691Z,72.20
2017-09-21T06:22:17.767Z,72.30
2017-09-21T06:24:45.263Z,71.20
2017-09-21T06:27:12.888Z,71.20
2017-09-21T06:29:40.390Z,71.50
2017-09-21T06:32:07.882Z,71.80
2017-09-21T06:34:35.795Z,71.80
2017-09-21T06:37:03.710Z,72.20
2017-09-21T06:39:31.223Z,72.20
2017-09-21T06:41:58.724Z,72.40
2017-09-21T06:44:26.235Z,72.50
2017-09-21T06:46:55.243Z,72.80
2017-09-21T06:49:24.263Z,72.40
2017-09-21T06:51:51.770Z,72.60
2017-09-21T06:54:19.320Z,73.10
2017-09-21T06:56:46.927Z,72.90
2017-09-21T06:59:14.440Z,73.20
2017-09-21T07:01:41.935Z,73.30
2017-09-21T07:04:09.446Z,73.10
2017-09-21T07:06:36.942Z,72.80
2017-09-21T07:09:04.454Z,72.60
2017-09-21T07:11:32.340Z,73.30
2017-09-21T07:14:00.607Z,74.80
2017-09-21T07:16:28.863Z,74.00
2017-09-21T07:18:56.463Z,73.80
2017-09-21T07:23:52.800Z,73.40
2017-09-21T07:26:20.290Z,73.10
2017-09-21T07:28:47.792Z,73.40
2017-09-21T07:31:16.598Z,73.30
2017-09-21T07:33:44.103Z,73.50
2017-09-21T07:36:11.594Z,73.40
2017-09-21T07:38:39.979Z,74.00
2017-09-21T07:43:36.483Z,73.00
2017-09-21T07:46:03.983Z,72.90
2017-09-21T07:48:31.479Z,72.70
2017-09-21T07:50:58.980Z,73.60
2017-09-21T07:53:27.619Z,73.80
2017-09-21T07:55:55.122Z,73.30
2017-09-21T07:58:23.399Z,73.70
2017-09-21T08:00:50.903Z,72.70
2017-09-21T08:03:18.404Z,72.60
2017-09-21T08:05:46.666Z,72.30
2017-09-21T08:08:14.347Z,72.20
2017-09-21T08:10:41.923Z,72.20
2017-09-21T08:13:09.460Z,72.00
2017-09-21T08:15:36.964Z,71.40
2017-09-21T08:18:05.607Z,71.30
2017-09-21T08:20:33.099Z,70.70
2017-09-21T08:23:02.099Z,70.80
2017-09-21T08:25:29.598Z,70.10
2017-09-21T08:27:57.101Z,69.70
2017-09-21T08:30:24.603Z,69.20
2017-09-21T08:32:52.107Z,68.80
2017-09-21T08:35:20.023Z,68.40
2017-09-21T08:37:47.515Z,68.00
2017-09-21T08:40:15.033Z,68.00
2017-09-21T08:42:42.531Z,68.10
2017-09-21T08:45:10.047Z,68.00
2017-09-21T08:47:37.544Z,68.40
2017-09-21T08:50:05.069Z,68.00
2017-09-21T08:52:32.566Z,67.50
2017-09-21T08:55:00.280Z,67.30
2017-09-21T08:59:56.639Z,66.40
2017-09-21T09:04:53.006Z,66.10
2017-09-21T09:07:20.507Z,66.10
2017-09-21T09:09:48.039Z,66.00
2017-09-21T09:12:15.729Z,65.80
2017-09-21T09:14:43.227Z,65.70
2017-09-21T09:17:11.128Z,63.70
2017-09-21T09:19:39.398Z,64.80
2017-09-21T09:22:07.787Z,64.50
2017-09-21T09:24:36.888Z,63.90
2017-09-21T09:27:04.391Z,63.10
2017-09-21T09:29:31.998Z,60.90
2017-09-21T09:31:59.650Z,58.60
2017-09-21T09:34:28.282Z,56.50
2017-09-21T09:36:56.203Z,57.40
2017-09-21T09:39:23.699Z,54.80
2017-09-21T09:41:51.186Z,56.40
2017-09-21T09:46:47.527Z,58.00
2017-09-21T09:49:15.515Z,57.40
2017-09-21T09:51:43.189Z,56.90
2017-09-21T09:54:11.462Z,55.70
2017-09-21T09:56:38.955Z,56.00
2017-09-21T09:59:06.443Z,55.90
2017-09-21T10:01:34.706Z,55.80
2017-09-21T10:04:02.966Z,55.00
2017-09-21T10:06:31.222Z,54.40
2017-09-21T10:08:58.711Z,54.40
2017-09-21T10:11:26.966Z,54.60
2017-09-21T10:13:55.379Z,55.30
2017-09-21T10:16:23.035Z,52.80
2017-09-21T10:18:50.532Z,52.60
2017-09-21T10:21:18.046Z,50.30
2017-09-21T10:23:45.614Z,48.80
2017-09-21T10:26:13.671Z,51.80
2017-09-21T10:28:41.342Z,47.50
2017-09-21T10:31:09.624Z,49.60
2017-09-21T10:33:37.114Z,47.90
2017-09-21T10:36:05.530Z,47.80
2017-09-21T10:38:33.416Z,49.50
2017-09-21T10:41:01.094Z,47.70
2017-09-21T10:43:28.706Z,46.80
2017-09-21T10:45:56.220Z,46.40
2017-09-21T10:48:23.719Z,48.10
2017-09-21T10:50:51.237Z,50.00
2017-09-21T10:53:19.123Z,51.20
2017-09-21T10:55:46.639Z,51.60
2017-09-21T10:58:14.136Z,52.00
2017-09-21T11:00:42.419Z,53.60
2017-09-21T11:03:09.928Z,51.10
2017-09-21T11:05:38.587Z,51.60
2017-09-21T11:08:06.082Z,51.70
2017-09-21T11:10:33.580Z,51.90
2017-09-21T11:13:01.074Z,50.10
2017-09-21T11:15:28.568Z,51.30
2017-09-21T11:17:56.826Z,51.80
2017-09-21T11:20:24.315Z,52.60
2017-09-21T11:22:51.919Z,52.30
2017-09-21T11:25:19.423Z,51.40
2017-09-21T11:27:46.981Z,51.00
2017-09-21T11:30:14.484Z,50.70
2017-09-21T11:32:41.979Z,51.70
2017-09-21T11:35:09.471Z,52.50
2017-09-21T11:37:38.636Z,51.40
2017-09-21T11:40:06.704Z,49.50
2017-09-21T11:42:34.363Z,50.00
2017-09-21T11:45:02.028Z,50.20
2017-09-21T11:47:31.030Z,51.40
2017-09-21T11:49:58.567Z,52.70
2017-09-21T11:52:26.455Z,51.60
2017-09-21T11:54:53.948Z,51.60
2017-09-21T11:57:22.580Z,51.40
2017-09-21T11:59:50.083Z,52.50
2017-09-21T12:02:19.095Z,52.70
2017-09-21T12:04:46.595Z,52.40
2017-09-21T12:07:14.095Z,49.50
2017-09-21T12:09:42.364Z,50.00
2017-09-21T12:12:09.863Z,48.30
2017-09-21T12:14:38.714Z,49.20
2017-09-21T12:17:06.986Z,49.70
2017-09-21T12:19:35.486Z,49.40
2017-09-21T12:22:03.047Z,49.90
2017-09-21T12:24:30.556Z,48.70
2017-09-21T12:29:27.432Z,49.70
2017-09-21T12:31:55.759Z,49.90
2017-09-21T12:34:23.237Z,50.30
2017-09-21T12:36:51.537Z,50.20
2017-09-21T12:39:19.812Z,49.90
2017-09-21T12:41:48.198Z,49.10
2017-09-21T12:44:15.691Z,49.10
2017-09-21T12:46:43.316Z,49.50
2017-09-21T12:49:10.817Z,49.90
2017-09-21T12:51:39.486Z,49.80
2017-09-21T12:54:07.111Z,50.40
2017-09-21T12:56:34.772Z,48.90
2017-09-21T12:59:02.272Z,49.50
2017-09-21T13:01:29.782Z,48.90
2017-09-21T13:03:57.300Z,50.60
2017-09-21T13:06:24.811Z,50.40
2017-09-21T13:08:52.304Z,49.60
2017-09-21T13:11:20.632Z,50.70
2017-09-21T13:13:48.133Z,49.80
2017-09-21T13:16:15.627Z,50.20
2017-09-21T13:18:43.119Z,50.80
2017-09-21T13:21:10.620Z,51.60
2017-09-21T13:23:39.015Z,53.40
2017-09-21T13:26:07.080Z,51.10
2017-09-21T13:28:34.739Z,51.00
2017-09-21T13:31:02.232Z,52.70
2017-09-21T13:33:29.727Z,52.10
2017-09-21T13:35:57.995Z,53.70
2017-09-21T13:38:26.255Z,52.70
2017-09-21T13:40:54.525Z,53.20
2017-09-21T13:43:22.795Z,52.50
2017-09-21T13:45:50.291Z,52.90
2017-09-21T13:48:18.551Z,50.50
2017-09-21T13:50:47.555Z,50.40
2017-09-21T13:53:15.219Z,50.60
2017-09-21T13:55:42.715Z,51.40
2017-09-21T13:58:10.326Z,50.70
2017-09-21T14:00:37.832Z,50.30
2017-09-21T14:03:06.095Z,50.70
2017-09-21T14:05:33.587Z,50.70
2017-09-21T14:08:02.406Z,51.80
2017-09-21T14:10:29.898Z,51.10
2017-09-21T14:12:57.419Z,51.20
2017-09-21T14:15:24.915Z,51.10
2017-09-21T14:17:52.612Z,51.10
2017-09-21T14:20:20.296Z,51.10
2017-09-21T14:22:47.813Z,50.30
2017-09-21T14:25:16.072Z,51.30
2017-09-21T14:27:44.490Z,51.80
2017-09-21T14:30:11.983Z,51.10
2017-09-21T14:32:39.494Z,51.60
2017-09-21T14:35:07.058Z,52.00
2017-09-21T14:37:34.578Z,50.90
2017-09-21T14:40:02.881Z,51.90
2017-09-21T14:42:30.383Z,50.90
2017-09-21T14:44:58.642Z,50.20
2017-09-21T14:47:26.137Z,51.30
2017-09-21T14:49:53.642Z,51.40
2017-09-21T14:52:21.143Z,51.40
2017-09-21T14:54:49.403Z,51.50
2017-09-21T14:57:17.286Z,50.60
2017-09-21T14:59:45.542Z,50.90
2017-09-21T15:02:13.817Z,51.10
2017-09-21T15:04:42.225Z,51.50
2017-09-21T15:07:10.115Z,50.20
2017-09-21T15:09:37.618Z,50.70
2017-09-21T15:12:06.450Z,50.50
2017-09-21T15:14:33.943Z,50.80
2017-09-21T15:17:01.455Z,51.50
2017-09-21T15:19:28.994Z,51.50
2017-09-21T15:21:56.546Z,53.60
2017-09-21T15:24:24.116Z,50.40
2017-09-21T15:26:51.611Z,51.10
2017-09-21T15:29:20.038Z,51.00
2017-09-21T15:31:47.527Z,51.20
2017-09-21T15:34:15.806Z,52.00
2017-09-21T15:36:43.328Z,51.20
2017-09-21T15:39:10.859Z,51.80
2017-09-21T15:41:38.755Z,52.60
2017-09-21T15:44:06.266Z,52.80
2017-09-21T15:46:34.528Z,52.50
2017-09-21T15:49:02.132Z,51.50
2017-09-21T15:51:29.622Z,52.20
2017-09-21T15:53:57.140Z,52.40
2017-09-21T15:56:25.041Z,51.70
2017-09-21T15:58:52.569Z,52.60
2017-09-21T16:01:20.229Z,53.20
2017-09-21T16:03:47.749Z,53.60
2017-09-21T16:06:15.248Z,53.30
2017-09-21T16:08:42.747Z,53.80
2017-09-21T16:13:39.100Z,55.60
2017-09-21T16:16:06.594Z,55.80
2017-09-21T16:18:34.578Z,55.90
2017-09-21T16:21:02.079Z,55.70
2017-09-21T16:23:29.768Z,55.60
2017-09-21T16:25:57.431Z,55.80
2017-09-21T16:28:24.924Z,56.70
2017-09-21T16:30:52.445Z,56.90
2017-09-21T16:33:19.983Z,56.50
2017-09-21T16:35:47.614Z,58.00
2017-09-21T16:38:15.131Z,58.10
2017-09-21T16:40:43.443Z,58.30
2017-09-21T16:43:11.348Z,58.50
2017-09-21T16:45:38.858Z,58.40
2017-09-21T16:48:06.363Z,59.10
2017-09-21T16:50:33.855Z,59.10
2017-09-21T16:53:01.346Z,59.60
2017-09-21T16:55:28.844Z,60.00
2017-09-21T16:57:57.107Z,59.90
2017-09-21T17:00:24.610Z,59.70
2017-09-21T17:02:52.107Z,60.00
2017-09-21T17:05:19.615Z,60.30
2017-09-21T17:07:48.033Z,61.20
2017-09-21T17:10:15.570Z,60.70
2017-09-21T17:12:43.154Z,61.10
2017-09-21T17:15:11.046Z,61.00
2017-09-21T17:17:38.539Z,61.20
2017-09-21T17:20:06.803Z,61.80
2017-09-21T17:22:35.203Z,62.10
2017-09-21T17:25:02.699Z,61.80
2017-09-21T17:27:30.215Z,62.00
2017-09-21T17:29:57.706Z,61.90
2017-09-21T17:32:25.227Z,62.00
2017-09-21T17:34:52.724Z,62.20
2017-09-21T17:37:20.332Z,62.20
2017-09-21T17:39:47.844Z,62.10
2017-09-21T17:42:15.443Z,62.00
2017-09-21T17:47:11.842Z,61.30
2017-09-21T17:49:39.359Z,61.50
2017-09-21T17:52:06.887Z,61.20
2017-09-21T17:54:34.401Z,61.40
2017-09-21T17:57:01.931Z,61.40
2017-09-21T17:59:29.423Z,61.40
2017-09-21T18:01:57.715Z,62.40
2017-09-21T18:04:25.230Z,61.80
2017-09-21T18:06:52.728Z,61.80
2017-09-21T18:09:20.988Z,61.80
2017-09-21T18:11:49.397Z,62.80
2017-09-21T18:14:17.291Z,62.40
2017-09-21T18:16:44.788Z,62.40
2017-09-21T18:19:13.792Z,62.30
2017-09-21T18:21:41.283Z,62.30
2017-09-21T18:24:08.775Z,62.00
2017-09-21T18:26:37.187Z,62.80
2017-09-21T18:29:04.704Z,61.80
2017-09-21T18:31:32.382Z,62.00
2017-09-21T18:34:00.665Z,62.80
2017-09-21T18:36:28.923Z,63.10
2017-09-21T18:38:56.848Z,62.30
2017-09-21T18:41:24.346Z,62.50
2017-09-21T18:43:51.843Z,62.80
2017-09-21T18:46:19.348Z,63.00
2017-09-21T18:48:47.615Z,63.80
2017-09-21T18:51:15.502Z,63.40
2017-09-21T18:53:43.763Z,63.90
2017-09-21T18:56:11.675Z,63.20
2017-09-21T18:58:39.167Z,63.10
2017-09-21T19:01:06.877Z,63.00
2017-09-21T19:03:34.523Z,62.80
2017-09-21T19:06:02.042Z,62.90
2017-09-21T19:08:30.301Z,63.40
2017-09-21T19:10:57.791Z,63.10
2017-09-21T19:13:26.050Z,63.60
2017-09-21T19:15:54.311Z,63.50
2017-09-21T19:18:21.821Z,62.70
2017-09-21T19:20:49.310Z,62.60
2017-09-21T19:23:17.219Z,62.50
2017-09-21T19:25:44.710Z,62.50
2017-09-21T19:28:12.221Z,62.40
2017-09-21T19:30:40.486Z,62.90
2017-09-21T19:33:08.884Z,62.80
2017-09-21T19:35:36.594Z,62.30
2017-09-21T19:38:04.163Z,62.20
2017-09-21T19:40:31.714Z,62.20
2017-09-21T19:42:59.282Z,62.20
2017-09-21T19:45:27.031Z,62.20
2017-09-21T19:47:54.682Z,62.20
2017-09-21T19:50:23.516Z,62.20
2017-09-21T19:52:51.231Z,62.20
2017-09-21T19:55:19.703Z,62.30
2017-09-21T19:57:47.619Z,62.30
2017-09-21T20:00:15.566Z,62.30
2017-09-21T20:02:43.130Z,62.50
2017-09-21T20:05:11.817Z,62.60
2017-09-21T20:07:40.095Z,62.60
2017-09-21T20:10:07.987Z,62.60
2017-09-21T20:12:35.515Z,62.60
2017-09-21T20:15:03.011Z,62.70
2017-09-21T20:17:30.522Z,62.60
2017-09-21T20:19:58.061Z,62.70
2017-09-21T20:22:26.691Z,62.70
2017-09-21T20:24:54.218Z,62.70
2017-09-21T20:27:22.471Z,62.70
2017-09-21T20:29:49.963Z,62.80
2017-09-21T20:32:17.569Z,62.80
2017-09-21T20:34:45.071Z,62.70
2017-09-21T20:37:12.720Z,62.70
2017-09-21T20:39:40.207Z,62.90
2017-09-21T20:42:07.723Z,62.90
2017-09-21T20:44:35.282Z,62.70
2017-09-21T20:47:02.938Z,62.60
2017-09-21T20:49:30.603Z,62.70
2017-09-21T20:51:58.103Z,62.70
2017-09-21T20:54:25.720Z,62.80
2017-09-21T20:56:53.220Z,62.60
2017-09-21T20:59:20.715Z,62.70
2017-09-21T21:01:48.221Z,62.80
2017-09-21T21:04:15.723Z,62.80
2017-09-21T21:06:43.624Z,62.80
2017-09-21T21:09:12.281Z,62.80
2017-09-21T21:11:39.795Z,62.80
2017-09-21T21:14:07.302Z,62.80
2017-09-21T21:16:34.803Z,62.80
2017-09-21T21:19:02.308Z,62.80
2017-09-21T21:21:29.798Z,63.00
2017-09-21T21:23:57.294Z,62.90
2017-09-21T21:26:25.570Z,63.40
2017-09-21T21:28:53.831Z,63.50
2017-09-21T21:31:22.467Z,62.80
2017-09-21T21:33:50.091Z,62.80
2017-09-21T21:36:17.586Z,62.90
2017-09-21T21:38:46.242Z,62.90
2017-09-21T21:41:14.499Z,63.10
2017-09-21T21:43:42.158Z,63.10
2017-09-21T21:51:08.823Z,63.70
2017-09-21T21:53:36.351Z,63.40
2017-09-21T21:56:04.615Z,64.10
2017-09-21T21:58:32.131Z,63.60
2017-09-21T22:00:59.631Z,63.50
2017-09-21T22:03:27.305Z,63.50
2017-09-21T22:05:54.810Z,63.40
2017-09-21T22:08:22.330Z,63.50
2017-09-21T22:10:49.831Z,63.60
2017-09-21T22:13:17.538Z,63.70
2017-09-21T22:15:46.170Z,63.70
2017-09-21T22:18:13.879Z,63.60
2017-09-21T22:20:41.371Z,63.40
2017-09-21T22:23:08.887Z,63.40
2017-09-21T22:25:36.379Z,63.20
2017-09-21T22:28:04.319Z,63.20
2017-09-21T22:30:32.583Z,63.20
2017-09-21T22:33:00.095Z,63.30
2017-09-21T22:35:27.694Z,63.20
2017-09-21T22:37:55.971Z,63.20
2017-09-21T22:40:23.627Z,63.20
2017-09-21T22:42:51.288Z,63.10
2017-09-21T22:45:18.951Z,63.20
2017-09-21T22:47:46.442Z,63.30
2017-09-21T22:50:13.934Z,63.40
2017-09-21T22:52:41.823Z,63.40
2017-09-21T22:55:09.323Z,63.30
2017-09-21T23:00:05.879Z,63.40
2017-09-21T23:02:33.375Z,63.40
2017-09-21T23:05:00.884Z,63.40
2017-09-21T23:07:28.383Z,63.50
2017-09-21T23:09:55.878Z,63.50
2017-09-21T23:12:24.130Z,63.40
2017-09-21T23:14:51.626Z,63.40
2017-09-21T23:17:19.114Z,63.80
2017-09-21T23:19:47.371Z,63.90
2017-09-21T23:22:15.060Z,64.00
2017-09-21T23:24:42.555Z,64.00
2017-09-21T23:27:10.048Z,65.00
2017-09-21T23:29:38.299Z,65.60
2017-09-21T23:32:05.792Z,64.90
2017-09-21T23:34:33.283Z,64.90
2017-09-21T23:37:00.791Z,64.80
2017-09-21T23:39:28.304Z,64.70
2017-09-21T23:41:57.134Z,64.70
2017-09-21T23:44:24.648Z,64.70
2017-09-21T23:46:53.072Z,64.70
2017-09-21T23:49:20.583Z,64.60
2017-09-21T23:51:48.183Z,64.70
2017-09-21T23:54:15.843Z,64.80
2017-09-21T23:56:43.500Z,64.80
2017-09-21T23:59:11.159Z,64.90
